sensor_id;sensor_type;location;lat;lon;timestamp;pressure;altitude;pressure_sealevel;temperature;humidity
22651;BME280;11492;42.646;23.400;2023-01-30T00:01:23;95343.28;;;1.48;68.34
22651;BME280;11492;42.646;23.400;2023-01-30T00:03:48;95334.25;;;1.44;68.37
22651;BME280;11492;42.646;23.400;2023-01-30T00:06:14;95332.53;;;1.44;68.88
22651;BME280;11492;42.646;23.400;2023-01-30T00:08:39;95325.69;;;1.45;68.27
22651;BME280;11492;42.646;23.400;2023-01-30T00:11:07;95312.34;;;1.21;68.64
22651;BME280;11492;42.646;23.400;2023-01-30T00:13:33;95322.94;;;1.37;69.23
22651;BME280;11492;42.646;23.400;2023-01-30T00:15:59;95317.41;;;1.43;69.35
22651;BME280;11492;42.646;23.400;2023-01-30T00:18:24;95323.19;;;1.34;68.89
22651;BME280;11492;42.646;23.400;2023-01-30T00:20:57;95329.53;;;1.28;69.16
22651;BME280;11492;42.646;23.400;2023-01-30T00:23:23;95331.50;;;1.36;69.17
22651;BME280;11492;42.646;23.400;2023-01-30T00:25:50;95330.00;;;1.23;68.88
22651;BME280;11492;42.646;23.400;2023-01-30T00:28:15;95323.44;;;1.20;69.07
22651;BME280;11492;42.646;23.400;2023-01-30T00:30:41;95324.09;;;1.33;69.46
22651;BME280;11492;42.646;23.400;2023-01-30T00:33:06;95327.09;;;1.38;69.01
22651;BME280;11492;42.646;23.400;2023-01-30T00:35:32;95331.25;;;1.39;69.78
22651;BME280;11492;42.646;23.400;2023-01-30T00:37:58;95328.16;;;1.46;69.49
22651;BME280;11492;42.646;23.400;2023-01-30T00:40:25;95319.25;;;1.41;69.55
22651;BME280;11492;42.646;23.400;2023-01-30T00:42:50;95318.00;;;1.35;69.94
22651;BME280;11492;42.646;23.400;2023-01-30T00:45:35;95313.81;;;1.34;69.41
22651;BME280;11492;42.646;23.400;2023-01-30T00:48:21;95308.63;;;1.36;69.85
22651;BME280;11492;42.646;23.400;2023-01-30T00:50:46;95314.41;;;1.38;69.89
22651;BME280;11492;42.646;23.400;2023-01-30T00:53:13;95302.84;;;1.34;69.16
22651;BME280;11492;42.646;23.400;2023-01-30T00:55:39;95312.19;;;1.33;69.37
22651;BME280;11492;42.646;23.400;2023-01-30T00:58:05;95311.66;;;1.30;69.10
22651;BME280;11492;42.646;23.400;2023-01-30T01:00:31;95308.53;;;1.26;69.39
22651;BME280;11492;42.646;23.400;2023-01-30T01:02:57;95306.56;;;1.30;69.81
22651;BME280;11492;42.646;23.400;2023-01-30T01:05:22;95307.25;;;1.21;69.92
22651;BME280;11492;42.646;23.400;2023-01-30T01:07:48;95304.03;;;1.19;69.54
22651;BME280;11492;42.646;23.400;2023-01-30T01:10:13;95306.31;;;1.22;69.88
22651;BME280;11492;42.646;23.400;2023-01-30T01:12:44;95305.06;;;1.17;70.01
22651;BME280;11492;42.646;23.400;2023-01-30T01:15:13;95304.94;;;1.07;69.48
22651;BME280;11492;42.646;23.400;2023-01-30T01:17:39;95307.72;;;1.15;69.62
22651;BME280;11492;42.646;23.400;2023-01-30T01:20:06;95295.00;;;1.15;69.14
22651;BME280;11492;42.646;23.400;2023-01-30T01:22:31;95297.56;;;1.15;70.16
22651;BME280;11492;42.646;23.400;2023-01-30T01:24:57;95283.09;;;1.16;70.13
22651;BME280;11492;42.646;23.400;2023-01-30T01:27:22;95289.22;;;1.13;69.64
22651;BME280;11492;42.646;23.400;2023-01-30T01:29:48;95292.47;;;1.15;70.58
22651;BME280;11492;42.646;23.400;2023-01-30T01:32:13;95292.34;;;1.17;69.99
22651;BME280;11492;42.646;23.400;2023-01-30T01:34:38;95289.00;;;1.16;69.55
22651;BME280;11492;42.646;23.400;2023-01-30T01:37:04;95284.03;;;1.15;70.86
22651;BME280;11492;42.646;23.400;2023-01-30T01:39:29;95287.25;;;1.17;70.52
22651;BME280;11492;42.646;23.400;2023-01-30T01:42:15;95281.97;;;1.20;70.55
22651;BME280;11492;42.646;23.400;2023-01-30T01:47:40;95290.13;;;1.23;69.37
22651;BME280;11492;42.646;23.400;2023-01-30T01:50:46;95281.38;;;1.05;69.77
22651;BME280;11492;42.646;23.400;2023-01-30T01:53:16;95289.22;;;1.13;69.80
22651;BME280;11492;42.646;23.400;2023-01-30T01:55:46;95293.50;;;1.13;70.54
22651;BME280;11492;42.646;23.400;2023-01-30T01:58:18;95278.59;;;1.08;70.65
22651;BME280;11492;42.646;23.400;2023-01-30T02:00:46;95289.94;;;1.15;70.17
22651;BME280;11492;42.646;23.400;2023-01-30T02:03:16;95289.00;;;1.16;69.45
22651;BME280;11492;42.646;23.400;2023-01-30T02:05:47;95290.59;;;1.17;69.41
22651;BME280;11492;42.646;23.400;2023-01-30T02:08:20;95287.38;;;1.15;69.65
22651;BME280;11492;42.646;23.400;2023-01-30T02:10:59;95289.69;;;1.18;70.07
22651;BME280;11492;42.646;23.400;2023-01-30T02:13:27;95292.22;;;1.18;69.04
22651;BME280;11492;42.646;23.400;2023-01-30T02:15:54;95287.59;;;1.12;69.56
22651;BME280;11492;42.646;23.400;2023-01-30T02:18:21;95290.38;;;1.20;70.35
22651;BME280;11492;42.646;23.400;2023-01-30T02:21:05;95285.66;;;1.16;69.73
22651;BME280;11492;42.646;23.400;2023-01-30T02:32:20;95277.56;;;1.11;69.46
22651;BME280;11492;42.646;23.400;2023-01-30T02:35:03;95282.66;;;1.11;69.54
22651;BME280;11492;42.646;23.400;2023-01-30T02:37:53;95284.84;;;1.15;69.55
22651;BME280;11492;42.646;23.400;2023-01-30T02:40:41;95275.84;;;1.11;69.99
22651;BME280;11492;42.646;23.400;2023-01-30T02:46:07;95268.44;;;1.08;69.01
22651;BME280;11492;42.646;23.400;2023-01-30T02:48:43;95272.84;;;1.06;68.79
22651;BME280;11492;42.646;23.400;2023-01-30T02:51:17;95269.34;;;1.07;69.69
22651;BME280;11492;42.646;23.400;2023-01-30T02:53:45;95269.25;;;1.09;69.44
22651;BME280;11492;42.646;23.400;2023-01-30T02:56:11;95263.00;;;1.13;68.45
22651;BME280;11492;42.646;23.400;2023-01-30T02:58:40;95261.16;;;1.15;69.33
22651;BME280;11492;42.646;23.400;2023-01-30T03:04:19;95270.97;;;1.08;68.86
22651;BME280;11492;42.646;23.400;2023-01-30T03:09:46;95271.22;;;0.84;69.51
22651;BME280;11492;42.646;23.400;2023-01-30T03:15:27;95259.47;;;0.83;69.26
22651;BME280;11492;42.646;23.400;2023-01-30T03:17:54;95263.28;;;0.88;69.54
22651;BME280;11492;42.646;23.400;2023-01-30T03:20:21;95257.00;;;0.92;69.26
22651;BME280;11492;42.646;23.400;2023-01-30T03:22:47;95249.38;;;0.92;68.59
22651;BME280;11492;42.646;23.400;2023-01-30T03:25:19;95252.53;;;0.85;68.48
22651;BME280;11492;42.646;23.400;2023-01-30T03:27:46;95253.66;;;0.92;68.25
22651;BME280;11492;42.646;23.400;2023-01-30T03:30:12;95245.84;;;0.84;69.10
22651;BME280;11492;42.646;23.400;2023-01-30T03:32:38;95240.50;;;0.87;68.09
22651;BME280;11492;42.646;23.400;2023-01-30T03:35:04;95242.56;;;0.93;69.60
22651;BME280;11492;42.646;23.400;2023-01-30T03:37:30;95228.03;;;0.95;68.59
22651;BME280;11492;42.646;23.400;2023-01-30T03:39:55;95235.19;;;1.00;69.16
22651;BME280;11492;42.646;23.400;2023-01-30T03:42:21;95229.88;;;0.93;69.14
22651;BME280;11492;42.646;23.400;2023-01-30T03:44:46;95242.56;;;0.82;68.98
22651;BME280;11492;42.646;23.400;2023-01-30T03:47:11;95237.03;;;0.88;69.15
22651;BME280;11492;42.646;23.400;2023-01-30T03:49:37;95245.13;;;0.93;68.78
22651;BME280;11492;42.646;23.400;2023-01-30T03:52:02;95243.50;;;0.92;68.64
22651;BME280;11492;42.646;23.400;2023-01-30T03:54:28;95235.31;;;0.88;69.19
22651;BME280;11492;42.646;23.400;2023-01-30T03:56:53;95237.75;;;0.90;69.01
22651;BME280;11492;42.646;23.400;2023-01-30T03:59:18;95229.06;;;0.92;68.48
22651;BME280;11492;42.646;23.400;2023-01-30T04:01:44;95232.06;;;0.97;68.16
22651;BME280;11492;42.646;23.400;2023-01-30T04:04:09;95216.81;;;0.97;67.97
22651;BME280;11492;42.646;23.400;2023-01-30T04:06:35;95233.94;;;0.63;68.89
22651;BME280;11492;42.646;23.400;2023-01-30T04:09:00;95224.47;;;0.65;69.58
22651;BME280;11492;42.646;23.400;2023-01-30T04:11:25;95229.88;;;0.71;68.75
22651;BME280;11492;42.646;23.400;2023-01-30T04:13:51;95232.44;;;0.71;68.76
22651;BME280;11492;42.646;23.400;2023-01-30T04:16:19;95237.50;;;0.82;68.67
22651;BME280;11492;42.646;23.400;2023-01-30T04:18:45;95231.88;;;0.78;69.42
22651;BME280;11492;42.646;23.400;2023-01-30T04:21:11;95224.13;;;0.80;69.76
22651;BME280;11492;42.646;23.400;2023-01-30T04:23:37;95225.03;;;0.90;70.10
22651;BME280;11492;42.646;23.400;2023-01-30T04:26:03;95237.97;;;0.65;68.92
22651;BME280;11492;42.646;23.400;2023-01-30T04:28:29;95234.41;;;0.68;69.54
22651;BME280;11492;42.646;23.400;2023-01-30T04:30:54;95237.03;;;0.77;69.12
22651;BME280;11492;42.646;23.400;2023-01-30T04:33:20;95233.69;;;0.87;69.35
22651;BME280;11492;42.646;23.400;2023-01-30T04:35:53;95228.97;;;0.83;69.61
22651;BME280;11492;42.646;23.400;2023-01-30T04:38:19;95225.53;;;0.62;70.00
22651;BME280;11492;42.646;23.400;2023-01-30T04:40:53;95226.88;;;0.66;70.28
22651;BME280;11492;42.646;23.400;2023-01-30T04:43:18;95231.97;;;0.66;70.07
22651;BME280;11492;42.646;23.400;2023-01-30T04:45:45;95219.50;;;0.74;70.71
22651;BME280;11492;42.646;23.400;2023-01-30T04:48:11;95228.53;;;0.78;70.12
22651;BME280;11492;42.646;23.400;2023-01-30T04:50:38;95210.38;;;0.82;69.55
22651;BME280;11492;42.646;23.400;2023-01-30T04:53:04;95219.63;;;0.83;69.76
22651;BME280;11492;42.646;23.400;2023-01-30T04:55:30;95219.03;;;0.80;69.74
22651;BME280;11492;42.646;23.400;2023-01-30T04:57:56;95209.69;;;0.80;69.56
22651;BME280;11492;42.646;23.400;2023-01-30T05:00:22;95217.44;;;0.79;70.09
22651;BME280;11492;42.646;23.400;2023-01-30T05:02:48;95208.44;;;0.64;69.59
22651;BME280;11492;42.646;23.400;2023-01-30T05:05:13;95208.44;;;0.43;70.87
22651;BME280;11492;42.646;23.400;2023-01-30T05:07:39;95207.28;;;0.57;70.03
22651;BME280;11492;42.646;23.400;2023-01-30T05:10:04;95212.22;;;0.70;70.59
22651;BME280;11492;42.646;23.400;2023-01-30T05:12:30;95213.38;;;0.76;70.31
22651;BME280;11492;42.646;23.400;2023-01-30T05:14:55;95204.16;;;0.65;70.73
22651;BME280;11492;42.646;23.400;2023-01-30T05:17:21;95215.91;;;0.33;70.89
22651;BME280;11492;42.646;23.400;2023-01-30T05:19:46;95215.69;;;0.47;71.22
22651;BME280;11492;42.646;23.400;2023-01-30T05:22:12;95212.09;;;0.60;70.67
22651;BME280;11492;42.646;23.400;2023-01-30T05:24:37;95219.72;;;0.60;70.75
22651;BME280;11492;42.646;23.400;2023-01-30T05:27:03;95219.97;;;0.68;70.96
22651;BME280;11492;42.646;23.400;2023-01-30T05:29:29;95225.03;;;0.47;71.42
22651;BME280;11492;42.646;23.400;2023-01-30T05:31:54;95217.44;;;0.57;72.02
22651;BME280;11492;42.646;23.400;2023-01-30T05:34:20;95220.88;;;0.67;71.58
22651;BME280;11492;42.646;23.400;2023-01-30T05:36:45;95218.78;;;0.72;71.65
22651;BME280;11492;42.646;23.400;2023-01-30T05:39:10;95219.50;;;0.52;71.72
22651;BME280;11492;42.646;23.400;2023-01-30T05:41:36;95218.59;;;0.64;71.85
22651;BME280;11492;42.646;23.400;2023-01-30T05:44:01;95216.16;;;0.52;70.94
22651;BME280;11492;42.646;23.400;2023-01-30T05:46:27;95220.78;;;0.58;71.84
22651;BME280;11492;42.646;23.400;2023-01-30T05:48:52;95207.97;;;0.59;71.14
22651;BME280;11492;42.646;23.400;2023-01-30T05:51:20;95215.34;;;0.73;71.89
22651;BME280;11492;42.646;23.400;2023-01-30T05:53:46;95221.13;;;0.75;72.14
22651;BME280;11492;42.646;23.400;2023-01-30T05:56:12;95226.19;;;0.75;71.64
22651;BME280;11492;42.646;23.400;2023-01-30T05:58:38;95232.53;;;0.70;71.82
22651;BME280;11492;42.646;23.400;2023-01-30T06:01:06;95226.66;;;0.80;72.02
22651;BME280;11492;42.646;23.400;2023-01-30T06:03:32;95219.38;;;0.86;71.76
22651;BME280;11492;42.646;23.400;2023-01-30T06:06:00;95220.66;;;0.81;72.48
22651;BME280;11492;42.646;23.400;2023-01-30T06:08:25;95225.72;;;0.81;72.57
22651;BME280;11492;42.646;23.400;2023-01-30T06:10:51;95229.06;;;0.81;71.58
22651;BME280;11492;42.646;23.400;2023-01-30T06:13:17;95220.97;;;0.87;73.32
22651;BME280;11492;42.646;23.400;2023-01-30T06:15:42;95225.50;;;0.84;72.03
22651;BME280;11492;42.646;23.400;2023-01-30T06:18:08;95226.53;;;0.92;71.43
22651;BME280;11492;42.646;23.400;2023-01-30T06:20:33;95220.88;;;0.89;71.95
22651;BME280;11492;42.646;23.400;2023-01-30T06:22:59;95217.53;;;0.88;72.43
22651;BME280;11492;42.646;23.400;2023-01-30T06:25:24;95210.63;;;0.47;72.29
22651;BME280;11492;42.646;23.400;2023-01-30T06:27:49;95209.22;;;0.54;72.75
22651;BME280;11492;42.646;23.400;2023-01-30T06:30:15;95209.44;;;0.62;72.72
22651;BME280;11492;42.646;23.400;2023-01-30T06:32:40;95218.13;;;0.70;72.66
22651;BME280;11492;42.646;23.400;2023-01-30T06:35:07;95210.50;;;0.59;72.53
22651;BME280;11492;42.646;23.400;2023-01-30T06:37:32;95218.91;;;0.49;73.97
22651;BME280;11492;42.646;23.400;2023-01-30T06:39:58;95212.69;;;0.53;73.94
22651;BME280;11492;42.646;23.400;2023-01-30T06:42:23;95213.72;;;0.61;73.54
22651;BME280;11492;42.646;23.400;2023-01-30T06:44:49;95225.03;;;0.47;73.45
22651;BME280;11492;42.646;23.400;2023-01-30T06:47:14;95224.81;;;0.49;73.29
22651;BME280;11492;42.646;23.400;2023-01-30T06:49:39;95220.44;;;0.62;73.71
22651;BME280;11492;42.646;23.400;2023-01-30T06:52:05;95217.53;;;0.67;72.67
22651;BME280;11492;42.646;23.400;2023-01-30T06:54:30;95229.31;;;0.68;73.55
22651;BME280;11492;42.646;23.400;2023-01-30T06:56:56;95223.78;;;0.74;72.50
22651;BME280;11492;42.646;23.400;2023-01-30T06:59:21;95221.47;;;0.71;72.60
22651;BME280;11492;42.646;23.400;2023-01-30T07:01:47;95231.16;;;0.66;72.24
22651;BME280;11492;42.646;23.400;2023-01-30T07:04:12;95233.13;;;0.62;72.18
22651;BME280;11492;42.646;23.400;2023-01-30T07:06:38;95232.66;;;0.68;72.64
22651;BME280;11492;42.646;23.400;2023-01-30T07:09:03;95234.50;;;0.66;72.34
22651;BME280;11492;42.646;23.400;2023-01-30T07:11:28;95241.19;;;0.67;72.76
22651;BME280;11492;42.646;23.400;2023-01-30T07:13:55;95237.63;;;0.70;72.74
22651;BME280;11492;42.646;23.400;2023-01-30T07:16:20;95236.47;;;0.74;72.14
22651;BME280;11492;42.646;23.400;2023-01-30T07:18:52;95237.97;;;0.76;72.27
22651;BME280;11492;42.646;23.400;2023-01-30T07:21:18;95246.72;;;0.72;73.10
22651;BME280;11492;42.646;23.400;2023-01-30T07:23:45;95244.44;;;0.80;72.55
22651;BME280;11492;42.646;23.400;2023-01-30T07:26:11;95255.06;;;0.85;73.03
22651;BME280;11492;42.646;23.400;2023-01-30T07:28:36;95244.78;;;0.75;73.46
22651;BME280;11492;42.646;23.400;2023-01-30T07:31:02;95252.53;;;0.85;72.45
22651;BME280;11492;42.646;23.400;2023-01-30T07:33:27;95254.13;;;0.86;72.03
22651;BME280;11492;42.646;23.400;2023-01-30T07:35:54;95255.75;;;0.87;73.17
22651;BME280;11492;42.646;23.400;2023-01-30T07:38:19;95251.84;;;0.94;73.58
22651;BME280;11492;42.646;23.400;2023-01-30T07:40:44;95248.13;;;0.98;72.93
22651;BME280;11492;42.646;23.400;2023-01-30T07:43:13;95256.19;;;1.02;73.34
22651;BME280;11492;42.646;23.400;2023-01-30T07:45:44;95258.41;;;0.85;72.70
22651;BME280;11492;42.646;23.400;2023-01-30T07:48:12;95252.84;;;0.91;72.40
22651;BME280;11492;42.646;23.400;2023-01-30T07:50:38;95254.13;;;0.86;72.87
22651;BME280;11492;42.646;23.400;2023-01-30T07:53:05;95254.59;;;0.80;72.10
22651;BME280;11492;42.646;23.400;2023-01-30T07:55:31;95251.72;;;0.84;72.60
22651;BME280;11492;42.646;23.400;2023-01-30T07:57:56;95239.22;;;0.81;72.68
22651;BME280;11492;42.646;23.400;2023-01-30T08:00:22;95235.53;;;0.85;72.76
22651;BME280;11492;42.646;23.400;2023-01-30T08:02:48;95235.09;;;0.80;72.18
22651;BME280;11492;42.646;23.400;2023-01-30T08:05:13;95230.69;;;0.82;72.22
22651;BME280;11492;42.646;23.400;2023-01-30T08:07:38;95218.56;;;0.86;71.83
22651;BME280;11492;42.646;23.400;2023-01-30T08:10:05;95221.44;;;0.92;71.33
22651;BME280;11492;42.646;23.400;2023-01-30T08:12:30;95225.25;;;0.98;70.78
22651;BME280;11492;42.646;23.400;2023-01-30T08:14:56;95215.34;;;0.84;71.57
22651;BME280;11492;42.646;23.400;2023-01-30T08:17:21;95218.44;;;0.98;71.17
22651;BME280;11492;42.646;23.400;2023-01-30T08:19:47;95220.88;;;0.99;71.50
22651;BME280;11492;42.646;23.400;2023-01-30T08:22:13;95213.72;;;1.04;70.47
22651;BME280;11492;42.646;23.400;2023-01-30T08:24:39;95220.41;;;1.05;70.73
22651;BME280;11492;42.646;23.400;2023-01-30T08:27:04;95214.63;;;1.14;71.86
22651;BME280;11492;42.646;23.400;2023-01-30T08:29:29;95208.28;;;1.09;71.06
22651;BME280;11492;42.646;23.400;2023-01-30T08:31:59;95215.28;;;1.16;71.27
22651;BME280;11492;42.646;23.400;2023-01-30T08:34:25;95208.31;;;1.29;71.35
22651;BME280;11492;42.646;23.400;2023-01-30T08:36:50;95200.47;;;1.32;70.01
22651;BME280;11492;42.646;23.400;2023-01-30T08:39:16;95211.44;;;1.32;69.54
22651;BME280;11492;42.646;23.400;2023-01-30T08:41:42;95197.88;;;1.43;69.93
22651;BME280;11492;42.646;23.400;2023-01-30T08:44:08;95203.88;;;1.52;69.46
22651;BME280;11492;42.646;23.400;2023-01-30T08:46:34;95194.94;;;1.58;70.17
22651;BME280;11492;42.646;23.400;2023-01-30T08:48:59;95182.09;;;1.59;69.61
22651;BME280;11492;42.646;23.400;2023-01-30T08:51:25;95184.50;;;1.41;68.42
22651;BME280;11492;42.646;23.400;2023-01-30T08:53:50;95188.03;;;1.49;69.16
22651;BME280;11492;42.646;23.400;2023-01-30T08:56:16;95191.47;;;1.59;70.37
22651;BME280;11492;42.646;23.400;2023-01-30T08:58:41;95173.53;;;1.60;68.62
22651;BME280;11492;42.646;23.400;2023-01-30T09:01:08;95174.09;;;1.64;68.00
22651;BME280;11492;42.646;23.400;2023-01-30T09:03:33;95175.78;;;1.74;68.33
22651;BME280;11492;42.646;23.400;2023-01-30T09:05:59;95175.28;;;1.60;67.87
22651;BME280;11492;42.646;23.400;2023-01-30T09:08:24;95175.84;;;1.63;67.39
22651;BME280;11492;42.646;23.400;2023-01-30T09:10:50;95171.50;;;1.74;67.50
22651;BME280;11492;42.646;23.400;2023-01-30T09:13:15;95171.59;;;1.84;67.12
22651;BME280;11492;42.646;23.400;2023-01-30T09:15:42;95167.06;;;1.67;66.60
22651;BME280;11492;42.646;23.400;2023-01-30T09:18:07;95170.72;;;1.74;66.02
22651;BME280;11492;42.646;23.400;2023-01-30T09:20:33;95161.03;;;1.68;65.24
22651;BME280;11492;42.646;23.400;2023-01-30T09:23:00;95162.34;;;1.83;65.36
22651;BME280;11492;42.646;23.400;2023-01-30T09:25:25;95161.22;;;1.96;66.23
22651;BME280;11492;42.646;23.400;2023-01-30T09:27:51;95163.94;;;1.84;66.11
22651;BME280;11492;42.646;23.400;2023-01-30T09:30:17;95170.72;;;1.94;66.23
22651;BME280;11492;42.646;23.400;2023-01-30T09:32:43;95163.38;;;2.00;67.14
22651;BME280;11492;42.646;23.400;2023-01-30T09:35:08;95165.63;;;2.14;65.71
22651;BME280;11492;42.646;23.400;2023-01-30T09:37:34;95161.19;;;2.16;66.41
22651;BME280;11492;42.646;23.400;2023-01-30T09:39:59;95162.28;;;1.94;65.04
22651;BME280;11492;42.646;23.400;2023-01-30T09:42:38;95166.31;;;1.96;65.25
22651;BME280;11492;42.646;23.400;2023-01-30T09:48:13;95152.84;;;1.85;65.97
22651;BME280;11492;42.646;23.400;2023-01-30T09:51:12;95148.19;;;1.70;65.41
22651;BME280;11492;42.646;23.400;2023-01-30T09:53:51;95145.28;;;1.74;66.57
22651;BME280;11492;42.646;23.400;2023-01-30T09:56:20;95136.47;;;1.78;66.29
22651;BME280;11492;42.646;23.400;2023-01-30T09:58:54;95133.28;;;1.85;66.51
22651;BME280;11492;42.646;23.400;2023-01-30T10:02:00;95137.50;;;1.96;65.54
22651;BME280;11492;42.646;23.400;2023-01-30T10:04:34;95126.38;;;1.97;65.97
22651;BME280;11492;42.646;23.400;2023-01-30T10:12:57;95118.09;;;1.95;66.22
22651;BME280;11492;42.646;23.400;2023-01-30T10:24:23;95089.72;;;1.79;66.55
22651;BME280;11492;42.646;23.400;2023-01-30T10:26:54;95090.41;;;1.81;65.84
22651;BME280;11492;42.646;23.400;2023-01-30T10:29:30;95086.44;;;1.88;65.94
22651;BME280;11492;42.646;23.400;2023-01-30T10:32:04;95079.25;;;1.93;66.42
22651;BME280;11492;42.646;23.400;2023-01-30T10:34:37;95072.03;;;1.98;66.75
22651;BME280;11492;42.646;23.400;2023-01-30T10:37:14;95068.78;;;1.96;65.44
22651;BME280;11492;42.646;23.400;2023-01-30T10:45:12;95058.47;;;1.68;65.26
22651;BME280;11492;42.646;23.400;2023-01-30T10:50:51;95038.72;;;1.80;65.50
22651;BME280;11492;42.646;23.400;2023-01-30T10:53:34;95045.00;;;2.06;65.20
22651;BME280;11492;42.646;23.400;2023-01-30T10:56:13;95036.75;;;2.13;64.22
22651;BME280;11492;42.646;23.400;2023-01-30T11:01:20;95021.53;;;2.41;63.25
22651;BME280;11492;42.646;23.400;2023-01-30T11:04:30;94989.94;;;2.62;62.48
22651;BME280;11492;42.646;23.400;2023-01-30T11:07:00;94995.19;;;2.98;62.53
22651;BME280;11492;42.646;23.400;2023-01-30T11:09:46;94996.00;;;3.17;61.65
22651;BME280;11492;42.646;23.400;2023-01-30T11:12:12;94983.34;;;3.34;60.11
22651;BME280;11492;42.646;23.400;2023-01-30T11:14:58;94976.22;;;3.38;60.44
22651;BME280;11492;42.646;23.400;2023-01-30T11:17:29;94973.00;;;3.36;59.28
22651;BME280;11492;42.646;23.400;2023-01-30T11:20:01;94973.94;;;3.25;59.05
22651;BME280;11492;42.646;23.400;2023-01-30T11:22:27;94972.78;;;2.92;59.45
22651;BME280;11492;42.646;23.400;2023-01-30T11:25:05;94965.81;;;3.03;60.36
22651;BME280;11492;42.646;23.400;2023-01-30T11:27:33;94960.72;;;2.85;60.28
22651;BME280;11492;42.646;23.400;2023-01-30T11:30:14;94947.69;;;2.88;60.45
22651;BME280;11492;42.646;23.400;2023-01-30T11:32:47;94947.19;;;2.75;60.42
22651;BME280;11492;42.646;23.400;2023-01-30T11:37:40;94924.50;;;2.81;60.12
22651;BME280;11492;42.646;23.400;2023-01-30T11:42:43;94935.25;;;2.75;60.05
22651;BME280;11492;42.646;23.400;2023-01-30T11:45:10;94928.50;;;2.37;60.27
22651;BME280;11492;42.646;23.400;2023-01-30T11:47:36;94923.44;;;2.56;60.62
22651;BME280;11492;42.646;23.400;2023-01-30T11:50:02;94917.25;;;2.77;60.87
22651;BME280;11492;42.646;23.400;2023-01-30T11:52:29;94906.78;;;2.89;60.32
22651;BME280;11492;42.646;23.400;2023-01-30T11:55:01;94902.06;;;2.94;59.91
22651;BME280;11492;42.646;23.400;2023-01-30T11:57:40;94895.75;;;3.07;61.30
22651;BME280;11492;42.646;23.400;2023-01-30T12:02:42;94887.00;;;3.19;59.35
22651;BME280;11492;42.646;23.400;2023-01-30T12:07:49;94879.59;;;2.71;60.37
22651;BME280;11492;42.646;23.400;2023-01-30T12:10:30;94870.97;;;2.91;60.90
22651;BME280;11492;42.646;23.400;2023-01-30T12:12:58;94861.97;;;3.05;60.57
22651;BME280;11492;42.646;23.400;2023-01-30T12:15:30;94864.50;;;3.05;59.70
22651;BME280;11492;42.646;23.400;2023-01-30T12:20:59;94854.25;;;3.24;59.44
22651;BME280;11492;42.646;23.400;2023-01-30T12:28:47;94848.47;;;3.31;58.22
22651;BME280;11492;42.646;23.400;2023-01-30T12:31:24;94837.75;;;3.19;57.82
22651;BME280;11492;42.646;23.400;2023-01-30T12:33:50;94839.75;;;3.24;58.67
22651;BME280;11492;42.646;23.400;2023-01-30T12:39:03;94825.03;;;3.09;59.18
22651;BME280;11492;42.646;23.400;2023-01-30T12:42:25;94838.84;;;3.16;59.32
22651;BME280;11492;42.646;23.400;2023-01-30T12:44:40;94829.16;;;3.20;58.98
22651;BME280;11492;42.646;23.400;2023-01-30T12:47:40;94825.72;;;3.11;58.32
22651;BME280;11492;42.646;23.400;2023-01-30T12:55:35;94808.88;;;2.92;58.24
22651;BME280;11492;42.646;23.400;2023-01-30T13:11:56;94793.56;;;3.54;57.18
22651;BME280;11492;42.646;23.400;2023-01-30T13:26:12;94787.34;;;3.56;56.44
22651;BME280;11492;42.646;23.400;2023-01-30T13:28:44;94774.59;;;3.56;57.26
22651;BME280;11492;42.646;23.400;2023-01-30T13:31:15;94776.13;;;3.23;56.59
22651;BME280;11492;42.646;23.400;2023-01-30T13:33:44;94767.28;;;3.27;57.79
22651;BME280;11492;42.646;23.400;2023-01-30T13:36:15;94766.53;;;3.34;57.33
22651;BME280;11492;42.646;23.400;2023-01-30T13:38:57;94761.88;;;3.30;58.17
22651;BME280;11492;42.646;23.400;2023-01-30T13:41:24;94763.31;;;3.42;58.41
22651;BME280;11492;42.646;23.400;2023-01-30T13:43:53;94759.13;;;3.41;57.63
22651;BME280;11492;42.646;23.400;2023-01-30T13:46:25;94759.66;;;3.18;58.35
22651;BME280;11492;42.646;23.400;2023-01-30T13:48:56;94755.97;;;3.29;58.23
22651;BME280;11492;42.646;23.400;2023-01-30T13:56:40;94761.25;;;3.19;58.22
22651;BME280;11492;42.646;23.400;2023-01-30T14:07:08;94763.47;;;3.04;57.88
22651;BME280;11492;42.646;23.400;2023-01-30T14:09:34;94747.28;;;2.96;59.01
22651;BME280;11492;42.646;23.400;2023-01-30T14:12:01;94758.84;;;2.91;58.63
22651;BME280;11492;42.646;23.400;2023-01-30T14:14:33;94758.16;;;2.89;58.50
22651;BME280;11492;42.646;23.400;2023-01-30T14:17:14;94760.63;;;2.81;58.25
22651;BME280;11492;42.646;23.400;2023-01-30T14:22:29;94765.13;;;2.51;59.78
22651;BME280;11492;42.646;23.400;2023-01-30T14:38:36;94762.19;;;2.27;60.18
22651;BME280;11492;42.646;23.400;2023-01-30T14:43:37;94746.88;;;2.55;61.05
22651;BME280;11492;42.646;23.400;2023-01-30T14:46:04;94750.56;;;2.25;59.64
22651;BME280;11492;42.646;23.400;2023-01-30T15:06:57;94740.16;;;1.72;61.69
22651;BME280;11492;42.646;23.400;2023-01-30T15:09:26;94747.88;;;1.71;62.80
22651;BME280;11492;42.646;23.400;2023-01-30T15:12:12;94739.59;;;1.69;62.50
22651;BME280;11492;42.646;23.400;2023-01-30T15:17:31;94730.38;;;1.77;64.27
22651;BME280;11492;42.646;23.400;2023-01-30T15:20:29;94745.63;;;1.77;63.53
22651;BME280;11492;42.646;23.400;2023-01-30T15:25:58;94749.09;;;1.57;63.11
22651;BME280;11492;42.646;23.400;2023-01-30T15:31:20;94742.38;;;1.38;63.70
22651;BME280;11492;42.646;23.400;2023-01-30T15:33:51;94759.34;;;1.28;62.65
22651;BME280;11492;42.646;23.400;2023-01-30T15:36:30;94759.72;;;1.23;63.01
22651;BME280;11492;42.646;23.400;2023-01-30T15:39:01;94766.97;;;1.28;63.33
22651;BME280;11492;42.646;23.400;2023-01-30T15:41:29;94763.34;;;1.21;64.18
22651;BME280;11492;42.646;23.400;2023-01-30T15:50:10;94762.09;;;1.06;63.86
22651;BME280;11492;42.646;23.400;2023-01-30T15:52:38;94759.13;;;1.01;63.90
22651;BME280;11492;42.646;23.400;2023-01-30T15:55:05;94765.28;;;0.99;63.68
22651;BME280;11492;42.646;23.400;2023-01-30T15:57:34;94762.47;;;1.02;63.86
22651;BME280;11492;42.646;23.400;2023-01-30T16:00:04;94758.19;;;1.02;64.00